地図

経路データ

SID SEASON NUMBER BASIN SUBBASIN NAME ISO_TIME NATURE LAT LON WMO_WIND WMO_PRES WMO_AGENCY TRACK_TYPE DIST2LAND LANDFALL IFLAG USA_AGENCY USA_ATCF_ID USA_LAT USA_LON USA_RECORD USA_STATUS USA_WIND USA_PRES USA_SSHS USA_R34_NE USA_R34_SE USA_R34_SW USA_R34_NW USA_R50_NE USA_R50_SE USA_R50_SW USA_R50_NW USA_R64_NE USA_R64_SE USA_R64_SW USA_R64_NW USA_POCI USA_ROCI USA_RMW USA_EYE TOKYO_LAT TOKYO_LON TOKYO_GRADE TOKYO_WIND TOKYO_PRES TOKYO_R50_DIR TOKYO_R50_LONG TOKYO_R50_SHORT TOKYO_R30_DIR TOKYO_R30_LONG TOKYO_R30_SHORT TOKYO_LAND CMA_LAT CMA_LON CMA_CAT CMA_WIND CMA_PRES HKO_LAT HKO_LON HKO_CAT HKO_WIND HKO_PRES NEWDELHI_LAT NEWDELHI_LON NEWDELHI_GRADE NEWDELHI_WIND NEWDELHI_PRES NEWDELHI_CI NEWDELHI_DP NEWDELHI_POCI REUNION_LAT REUNION_LON REUNION_TYPE REUNION_WIND REUNION_PRES REUNION_TNUM REUNION_CI REUNION_RMW REUNION_R34_NE REUNION_R34_SE REUNION_R34_SW REUNION_R34_NW REUNION_R50_NE REUNION_R50_SE REUNION_R50_SW REUNION_R50_NW REUNION_R64_NE REUNION_R64_SE REUNION_R64_SW REUNION_R64_NW BOM_LAT BOM_LON BOM_TYPE BOM_WIND BOM_PRES BOM_TNUM BOM_CI BOM_RMW BOM_R34_NE BOM_R34_SE BOM_R34_SW BOM_R34_NW BOM_R50_NE BOM_R50_SE BOM_R50_SW BOM_R50_NW BOM_R64_NE BOM_R64_SE BOM_R64_SW BOM_R64_NW BOM_ROCI BOM_POCI BOM_EYE BOM_POS_METHOD BOM_PRES_METHOD NADI_LAT NADI_LON NADI_CAT NADI_WIND NADI_PRES WELLINGTON_LAT WELLINGTON_LON WELLINGTON_WIND WELLINGTON_PRES DS824_LAT DS824_LON DS824_STAGE DS824_WIND DS824_PRES TD9636_LAT TD9636_LON TD9636_STAGE TD9636_WIND TD9636_PRES TD9635_LAT TD9635_LON TD9635_WIND TD9635_PRES TD9635_ROCI NEUMANN_LAT NEUMANN_LON NEUMANN_CLASS NEUMANN_WIND NEUMANN_PRES MLC_LAT MLC_LON MLC_CLASS MLC_WIND MLC_PRES USA_GUST BOM_GUST BOM_GUST_PER REUNION_GUST REUNION_GUST_PER USA_SEAHGT USA_SEARAD_NE USA_SEARAD_SE USA_SEARAD_SW USA_SEARAD_NW STORM_SPEED STORM_DIR
1943186N22154 1943 37 WP MM NOT_NAMED 1943-07-05 09:00:00 NR 22.3000 154.000 main 1952 1907 __________O___ -1 22.3000 154.000 4 13 274
1943186N22154 1943 37 WP MM NOT_NAMED 1943-07-05 12:00:00 NR 22.3440 153.280 main 1907 1854 __________P___ -1 22.3440 153.280 4 13 274
1943186N22154 1943 37 WP MM NOT_NAMED 1943-07-05 15:00:00 NR 22.3888 152.598 main 1854 1817 __________P___ -1 22.3888 152.598 4 12 275
1943186N22154 1943 37 WP MM NOT_NAMED 1943-07-05 18:00:00 NR 22.4391 151.992 main 1817 1779 __________P___ -1 22.4391 151.992 4 10 276
1943186N22154 1943 37 WP MM NOT_NAMED 1943-07-05 21:00:00 NR 22.5000 151.500 main 1779 1752 __________O___ -1 22.5000 151.500 4 8 280
1943186N22154 1943 37 WP MM NOT_NAMED 1943-07-06 00:00:00 NR 22.5761 151.148 main 1746 1726 __________P___ -1 22.5761 151.148 4 6 287
1943186N22154 1943 37 WP MM NOT_NAMED 1943-07-06 03:00:00 NR 22.6684 150.907 main 1726 1705 __________P___ -1 22.6684 150.907 4 4 298
1943186N22154 1943 37 WP MM NOT_NAMED 1943-07-06 06:00:00 NR 22.7765 150.738 main 1705 1690 __________P___ -1 22.7765 150.738 4 4 309
1943186N22154 1943 37 WP MM NOT_NAMED 1943-07-06 09:00:00 NR 22.9000 150.600 main 1690 1669 __________O___ -1 22.9000 150.600 4 4 312
1943186N22154 1943 37 WP MM NOT_NAMED 1943-07-06 12:00:00 NR 23.0354 150.432 main 1669 1645 __________P___ -1 23.0354 150.432 4 4 314
1943186N22154 1943 37 WP MM NOT_NAMED 1943-07-06 15:00:00 NR 23.1847 150.285 main 1645 1630 __________P___ -1 23.1847 150.285 4 4 319
1943186N22154 1943 37 WP MM NOT_NAMED 1943-07-06 18:00:00 NR 23.3417 150.145 main 1625 1600 __________P___ -1 23.3417 150.145 4 4 320
1943186N22154 1943 37 WP MM NOT_NAMED 1943-07-06 21:00:00 NR 23.5000 150.000 main 1600 1580 __________O___ -1 23.5000 150.000 4 4 316
1943186N22154 1943 37 WP MM NOT_NAMED 1943-07-07 00:00:00 NR 23.6419 149.828 main 1580 1555 __________P___ -1 23.6419 149.828 4 4 312
1943186N22154 1943 37 WP MM NOT_NAMED 1943-07-07 03:00:00 NR 23.7850 149.650 main 1550 1535 __________P___ -1 23.7850 149.650 4 4 312
1943186N22154 1943 37 WP MM NOT_NAMED 1943-07-07 06:00:00 NR 23.9356 149.472 main 1535 1505 __________P___ -1 23.9356 149.472 4 5 315
1943186N22154 1943 37 WP MM NOT_NAMED 1943-07-07 09:00:00 NR 24.1000 149.300 main 1505 1485 __________O___ -1 24.1000 149.300 4 4 314
1943186N22154 1943 37 WP MM NOT_NAMED 1943-07-07 12:00:00 NR 24.2369 149.134 main 1485 1461 __________P___ -1 24.2369 149.134 4 4 315
1943186N22154 1943 37 WP MM NOT_NAMED 1943-07-07 15:00:00 NR 24.3950 148.977 main 1461 1431 __________P___ -1 24.3950 148.977 4 5 323
1943186N22154 1943 37 WP MM NOT_NAMED 1943-07-07 18:00:00 NR 24.6056 148.831 main 1431 1397 __________P___ -1 24.6056 148.831 4 6 333
1943186N22154 1943 37 WP MM NOT_NAMED 1943-07-07 21:00:00 NR 24.9000 148.700 main 1397 1354 __________O___ -1 24.9000 148.700 4 7 340
1943186N22154 1943 37 WP MM NOT_NAMED 1943-07-08 00:00:00 NR 25.3057 148.554 main 1354 1297 __________P___ -1 25.3057 148.554 4 9 345
1943186N22154 1943 37 WP MM NOT_NAMED 1943-07-08 03:00:00 NR 25.7951 148.427 main 1297 1245 __________P___ -1 25.7951 148.427 4 11 349
1943186N22154 1943 37 WP MM NOT_NAMED 1943-07-08 06:00:00 NR 26.3369 148.336 main 1245 1191 __________P___ -1 26.3369 148.336 4 11 354
1943186N22154 1943 37 WP MM NOT_NAMED 1943-07-08 09:00:00 NR 26.9000 148.300 main 1191 1147 __________O___ -1 26.9000 148.300 4 11 0
1943186N22154 1943 37 WP MM NOT_NAMED 1943-07-08 12:00:00 NR 27.4154 148.357 main 1153 1110 __________P___ -1 27.4154 148.357 4 11 8
1943186N22154 1943 37 WP MM NOT_NAMED 1943-07-08 15:00:00 NR 27.9477 148.468 main 1117 1074 __________P___ -1 27.9477 148.468 4 11 11
1943186N22154 1943 37 WP MM NOT_NAMED 1943-07-08 18:00:00 NR 28.5061 148.595 main 1074 1034 __________P___ -1 28.5061 148.595 4 12 10
1943186N22154 1943 37 WP MM NOT_NAMED 1943-07-08 21:00:00 NR 29.1000 148.700 main 1034 988 __________O___ -1 29.1000 148.700 4 12 5
1943186N22154 1943 37 WP MM NOT_NAMED 1943-07-09 00:00:00 NR 29.7390 148.718 main 988 935 __________P___ -1 29.7390 148.718 4 13 0
1943186N22154 1943 37 WP MM NOT_NAMED 1943-07-09 03:00:00 NR 30.4125 148.710 main 935 885 __________P___ -1 30.4125 148.710 4 14 0
1943186N22154 1943 37 WP MM NOT_NAMED 1943-07-09 06:00:00 NR 31.1047 148.696 main 885 840 __________P___ -1 31.1047 148.696 4 14 359
1943186N22154 1943 37 WP MM NOT_NAMED 1943-07-09 09:00:00 NR 31.8000 148.700 main 840 808 __________O___ -1 31.8000 148.700 4 14 2
1943186N22154 1943 37 WP MM NOT_NAMED 1943-07-09 12:00:00 NR 32.4993 148.764 main 808 774 __________P___ -1 32.4993 148.764 4 14 5
1943186N22154 1943 37 WP MM NOT_NAMED 1943-07-09 15:00:00 NR 33.1950 148.848 main 774 759 __________P___ -1 33.1950 148.848 4 14 6
1943186N22154 1943 37 WP MM NOT_NAMED 1943-07-09 18:00:00 NR 33.8681 148.933 main 755 747 __________P___ -1 33.8681 148.933 4 13 5
1943186N22154 1943 37 WP MM NOT_NAMED 1943-07-09 21:00:00 NR 34.5000 149.000 main 747 736 __________O___ -1 34.5000 149.000 4 12 3
1943186N22154 1943 37 WP MM NOT_NAMED 1943-07-10 00:00:00 NR 35.0639 149.022 main 735 729 __________P___ -1 35.0639 149.022 4 11 0
1943186N22154 1943 37 WP MM NOT_NAMED 1943-07-10 03:00:00 NR 35.5874 149.024 main 729 706 __________P___ -1 35.5874 149.024 4 10 0
1943186N22154 1943 37 WP MM NOT_NAMED 1943-07-10 06:00:00 NR 36.0921 149.013 main 706 683 __________P___ -1 36.0921 149.013 4 10 0
1943186N22154 1943 37 WP MM NOT_NAMED 1943-07-10 09:00:00 NR 36.6000 149.000 main 683 649 __________O___ -1 36.6000 149.000 4 10 356
1943186N22154 1943 37 WP MM NOT_NAMED 1943-07-10 12:00:00 NR 37.1260 148.927 main 649 626 __________P___ -1 37.1260 148.927 4 11 354
1943186N22154 1943 37 WP MM NOT_NAMED 1943-07-10 15:00:00 NR 37.6614 148.865 main 622 604 __________P___ -1 37.6614 148.865 4 11 358
1943186N22154 1943 37 WP MM NOT_NAMED 1943-07-10 18:00:00 NR 38.2161 148.870 main 604 570 __________P___ -1 38.2161 148.870 4 11 5
1943186N22154 1943 37 WP MM NOT_NAMED 1943-07-10 21:00:00 NR 38.8000 149.000 main 570 522 __________O___ -1 38.8000 149.000 4 13 14
1943186N22154 1943 37 WP MM NOT_NAMED 1943-07-11 00:00:00 NR 39.4609 149.279 main 518 483 __________P___ -1 39.4609 149.279 4 14 22
1943186N22154 1943 37 WP MM NOT_NAMED 1943-07-11 03:00:00 NR 40.1433 149.699 main 489 469 __________P___ -1 40.1433 149.699 4 15 29
1943186N22154 1943 37 WP MM NOT_NAMED 1943-07-11 06:00:00 NR 40.8040 150.245 main 469 462 __________P___ -1 40.8040 150.245 4 16 36
1943186N22154 1943 37 WP MM NOT_NAMED 1943-07-11 09:00:00 NR 41.4000 150.900 main 462 438 __________O___ -1 41.4000 150.900 4 15 44
1943186N22154 1943 37 WP MM NOT_NAMED 1943-07-11 12:00:00 NR 41.8996 151.643 main 438 421 __________P___ -1 41.8996 151.643 4 15 52
1943186N22154 1943 37 WP MM NOT_NAMED 1943-07-11 15:00:00 NR 42.3161 152.454 main 429 419 __________P___ -1 42.3161 152.454 4 15 58
1943186N22154 1943 37 WP MM NOT_NAMED 1943-07-11 18:00:00 NR 42.6745 153.313 main 430 430 __________P___ -1 42.6745 153.313 4 15 62
1943186N22154 1943 37 WP MM NOT_NAMED 1943-07-11 21:00:00 NR 43.0000 154.200 main 453 __________O___ -1 43.0000 154.200 4 15 63

デジタル台風データ・検索

IBTrACS Databaseについて

本データベースは、米国NOAAが公開する1842年以降の世界の熱帯低気圧のベストトラックデータアーカイブInternational Best Track Archive for Climate Stewardship (IBTrACS)を、ウェブで閲覧しやすい形式に変換したものです。

最終更新日:2021-11-26